Time;durP1;ratioP1;P1;durP2;ratioP2;P2;SDS_P1;SDS_P2;PMS_P1;PMS_P2;Temp;Humidity;BMP_temperature;BMP_pressure;BME280_temperature;BME280_humidity;BME280_pressure;Samples;Min_cycle;Max_cycle;Signal;HPM_P1;HPM_P2
2022/01/12 00:00:48;;;;;;;22.97;16.60;;;;;;;5.56;67.80;102977.59;5068273;28;20474;-67
2022/01/12 00:03:14;;;;;;;18.53;15.60;;;;;;;5.64;68.29;102970.34;5061828;28;20534;-67
2022/01/12 00:05:39;;;;;;;24.03;16.40;;;;;;;5.65;67.39;102982.50;5062567;28;20174;-66
2022/01/12 00:08:05;;;;;;;25.70;17.17;;;;;;;5.52;67.81;102975.59;5062245;28;20174;-67
2022/01/12 00:10:31;;;;;;;23.73;17.53;;;;;;;5.99;67.04;102971.78;5062131;28;20216;-66
2022/01/12 00:12:56;;;;;;;20.40;15.60;;;;;;;5.59;67.63;102977.81;5069492;28;20420;-68
2022/01/12 00:15:21;;;;;;;24.00;16.10;;;;;;;5.76;67.15;102976.31;5067751;28;20197;-68
2022/01/12 00:17:47;;;;;;;27.10;17.40;;;;;;;5.89;66.86;102985.81;5068354;28;20173;-69
2022/01/12 00:20:12;;;;;;;18.43;15.53;;;;;;;5.54;67.41;102987.84;5064309;28;20188;-69
2022/01/12 00:22:39;;;;;;;22.53;16.23;;;;;;;5.31;68.63;102995.78;5061584;28;20188;-69
2022/01/12 00:25:24;;;;;;;24.03;16.70;;;;;;;5.36;68.66;102991.81;5061689;28;20182;-69
2022/01/12 00:33:17;;;;;;;22.50;16.40;;;;;;;5.21;69.73;103004.59;5061275;28;20566;-69
2022/01/12 00:35:47;;;;;;;22.07;14.13;;;;;;;9.12;68.82;102988.13;5079720;28;20549;-61
2022/01/12 00:38:14;;;;;;;19.10;15.30;;;;;;;8.48;63.79;102992.56;5080780;28;20188;-61
2022/01/12 00:40:42;;;;;;;19.50;15.70;;;;;;;8.50;64.08;102993.56;5081367;28;20454;-67
2022/01/12 00:43:08;;;;;;;30.03;17.90;;;;;;;6.31;68.29;103004.03;5081532;28;20411;-67
2022/01/12 00:45:34;;;;;;;24.83;18.63;;;;;;;5.84;70.97;102997.53;5081181;28;20392;-65
2022/01/12 00:47:59;;;;;;;21.73;18.03;;;;;;;5.38;73.79;102998.84;5081231;28;20189;-65
2022/01/12 00:50:25;;;;;;;27.40;19.40;;;;;;;5.19;74.91;102991.53;5081615;28;20863;-67
2022/01/12 00:52:50;;;;;;;24.97;20.43;;;;;;;5.38;74.03;102992.78;5081106;28;20177;-65
2022/01/12 00:55:16;;;;;;;28.37;21.40;;;;;;;5.36;74.31;102996.97;5080963;28;20271;-65
2022/01/12 00:57:42;;;;;;;25.20;19.30;;;;;;;5.13;75.85;103009.25;5081952;28;20172;-67
2022/01/12 01:00:08;;;;;;;24.67;20.43;;;;;;;5.23;76.05;103008.16;5081251;28;20214;-65
2022/01/12 01:02:34;;;;;;;31.37;21.53;;;;;;;5.40;74.87;103015.38;5080820;28;20772;-66
2022/01/12 01:05:00;;;;;;;24.13;20.40;;;;;;;5.27;75.99;103015.34;5082046;28;20408;-65
2022/01/12 01:07:26;;;;;;;30.47;21.93;;;;;;;5.44;75.33;103016.50;5081989;28;20169;-66
2022/01/12 01:10:02;;;;;;;26.57;20.40;;;;;;;5.21;76.00;103015.84;5080853;28;20411;-66
2022/01/12 01:12:27;;;;;;;30.27;22.10;;;;;;;5.33;76.00;103018.38;5080535;28;20230;-66
2022/01/12 01:15:11;;;;;;;27.97;22.60;;;;;;;5.15;77.42;103028.31;5080479;28;20680;-65
2022/01/12 01:25:36;;;;;;;34.40;24.37;;;;;;;4.98;76.85;103021.09;5080587;28;20890;-66
2022/01/12 01:28:03;;;;;;;34.30;24.83;;;;;;;5.20;75.70;103028.66;5080666;28;20451;-64
2022/01/12 01:30:29;;;;;;;31.77;25.33;;;;;;;5.40;75.72;103020.56;5080199;28;20230;-65
2022/01/12 01:32:57;;;;;;;27.97;23.27;;;;;;;5.50;74.71;103018.59;5080741;28;20691;-66
2022/01/12 01:35:26;;;;;;;29.57;24.47;;;;;;;5.51;74.25;103017.81;5080283;28;20574;-66
2022/01/12 01:37:51;;;;;;;32.00;22.50;;;;;;;5.49;74.39;103024.56;5080246;28;20430;-67
2022/01/12 01:40:17;;;;;;;31.90;23.97;;;;;;;5.49;75.16;103029.72;5079932;28;20411;-65
2022/01/12 01:43:15;;;;;;;28.40;23.30;;;;;;;5.67;73.89;103027.47;5079961;28;20434;-66
2022/01/12 01:53:52;;;;;;;26.40;21.90;;;;;;;5.51;74.24;103039.41;5079824;28;20477;-66
2022/01/12 01:56:19;;;;;;;25.37;22.00;;;;;;;5.47;75.44;103039.09;5079331;28;20462;-66
2022/01/12 01:58:45;;;;;;;35.80;23.87;;;;;;;5.39;74.77;103044.63;5079954;28;20184;-65
2022/01/12 02:01:10;;;;;;;31.40;23.50;;;;;;;5.32;75.17;103057.94;5079695;28;20686;-66
2022/01/12 02:03:36;;;;;;;34.83;24.93;;;;;;;5.26;74.92;103043.69;5079264;28;20462;-66
2022/01/12 02:06:04;;;;;;;32.10;25.03;;;;;;;5.15;75.73;103051.59;5079860;28;20173;-66
2022/01/12 02:08:30;;;;;;;35.83;26.30;;;;;;;5.37;75.29;103053.06;5079597;28;20267;-66
2022/01/12 02:10:56;;;;;;;31.93;25.37;;;;;;;4.98;77.00;103046.94;5080140;28;20444;-66
2022/01/12 02:13:22;;;;;;;36.87;27.50;;;;;;;4.95;77.38;103046.75;5078892;28;20484;-66
2022/01/12 02:15:49;;;;;;;41.30;26.37;;;;;;;5.02;77.61;103055.03;5078991;28;20545;-65
2022/01/12 02:35:34;;;;;;;40.30;29.27;;;;;;;4.70;79.23;103058.81;5078782;28;20418;-66
2022/01/12 02:40:34;;;;;;;43.00;29.53;;;;;;;5.10;78.05;103065.91;5079235;28;20411;-66
2022/01/12 02:43:13;;;;;;;42.30;29.23;;;;;;;5.12;78.31;103066.03;5078817;28;20183;-65
2022/01/12 02:53:42;;;;;;;44.23;29.63;;;;;;;5.08;78.47;103070.06;5078553;28;20495;-66
2022/01/12 02:56:16;;;;;;;42.57;31.57;;;;;;;5.21;77.77;103077.00;5078656;28;20734;-65
2022/01/12 02:58:43;;;;;;;44.57;32.87;;;;;;;5.17;79.01;103077.59;5078633;28;20822;-64
2022/01/12 03:03:47;;;;;;;48.47;30.93;;;;;;;4.84;80.19;103077.00;5078454;28;20422;-64
2022/01/12 03:06:18;;;;;;;45.10;31.87;;;;;;;5.24;78.16;103082.38;5078541;28;20410;-64
2022/01/12 03:08:44;;;;;;;45.50;30.90;;;;;;;5.29;79.09;103075.84;5077726;28;20437;-65
2022/01/12 03:11:11;;;;;;;44.90;32.77;;;;;;;5.31;78.80;103083.72;5078625;28;20407;-67
2022/01/12 03:13:37;;;;;;;52.97;33.53;;;;;;;5.51;78.37;103077.31;5079731;28;20180;-66
2022/01/12 03:16:15;;;;;;;43.47;31.83;;;;;;;5.33;78.78;103083.03;5077736;28;20760;-67
2022/01/12 03:18:41;;;;;;;50.60;33.47;;;;;;;5.38;78.51;103086.81;5077945;28;20417;-67
2022/01/12 03:21:07;;;;;;;52.50;35.67;;;;;;;4.93;80.22;103079.34;5080856;28;20419;-67
2022/01/12 03:23:32;;;;;;;62.53;36.03;;;;;;;5.28;79.38;103084.38;5079375;28;20465;-66
2022/01/12 03:25:58;;;;;;;47.70;34.17;;;;;;;5.32;79.42;103082.94;5082288;28;20250;-66
2022/01/12 03:28:24;;;;;;;51.13;33.70;;;;;;;5.18;80.40;103081.94;5078655;28;20183;-65
2022/01/12 03:31:05;;;;;;;56.90;34.97;;;;;;;5.30;80.20;103085.38;5077529;28;20544;-66
2022/01/12 03:38:51;;;;;;;55.10;36.10;;;;;;;4.95;81.28;103088.09;5077843;28;20397;-66
2022/01/12 03:41:16;;;;;;;53.63;36.13;;;;;;;5.31;79.63;103079.41;5078155;28;20419;-66
2022/01/12 03:43:42;;;;;;;55.00;36.57;;;;;;;5.56;79.06;103075.91;5078016;28;20464;-65
2022/01/12 03:46:08;;;;;;;54.90;37.60;;;;;;;5.54;78.97;103067.16;5077315;28;20220;-65
2022/01/12 03:48:33;;;;;;;58.50;39.00;;;;;;;5.56;78.84;103061.31;5078428;28;20256;-67
2022/01/12 03:50:58;;;;;;;54.97;38.30;;;;;;;5.20;80.15;103072.63;5078087;28;20172;-65
2022/01/12 03:53:24;;;;;;;52.37;35.90;;;;;;;5.02;80.84;103074.81;5077737;28;20286;-66
2022/01/12 03:55:49;;;;;;;53.07;35.97;;;;;;;5.06;80.49;103067.38;5078582;28;20490;-66
2022/01/12 03:58:15;;;;;;;62.30;39.00;;;;;;;5.17;80.97;103064.66;5077299;28;20263;-66
2022/01/12 04:00:40;;;;;;;61.23;39.83;;;;;;;5.12;81.11;103060.84;5077763;28;20188;-66
2022/01/12 04:03:07;;;;;;;62.23;40.60;;;;;;;5.47;79.72;103064.97;5078046;28;20165;-65
2022/01/12 04:08:22;;;;;;;59.50;38.90;;;;;;;5.19;81.29;103081.16;5078075;28;20407;-66
2022/01/12 04:10:48;;;;;;;63.03;37.87;;;;;;;4.87;82.80;103079.78;5077415;28;20419;-65
2022/01/12 04:13:14;;;;;;;65.57;39.00;;;;;;;5.24;81.52;103082.38;5077617;28;20427;-66
2022/01/12 04:15:44;;;;;;;65.80;37.47;;;;;;;5.13;81.52;103083.31;5078039;28;20521;-66
2022/01/12 04:18:10;;;;;;;60.47;40.07;;;;;;;5.14;81.61;103085.13;5077847;28;20396;-66
2022/01/12 04:20:43;;;;;;;63.73;37.53;;;;;;;5.12;80.64;103095.34;5078353;28;20780;-66
2022/01/12 04:23:17;;;;;;;63.43;40.07;;;;;;;5.15;81.32;103092.09;5077746;28;20265;-66
2022/01/12 04:25:51;;;;;;;59.67;36.43;;;;;;;4.94;82.73;103089.78;5078644;28;20434;-66
2022/01/12 04:28:17;;;;;;;55.57;35.50;;;;;;;4.81;83.03;103094.88;5077804;28;20487;-65
2022/01/12 04:30:44;;;;;;;61.47;36.90;;;;;;;5.05;82.12;103069.88;5077696;28;20471;-66
2022/01/12 04:33:09;;;;;;;61.77;38.20;;;;;;;5.02;81.50;103078.31;5076789;28;20721;-65
2022/01/12 04:35:38;;;;;;;55.37;36.10;;;;;;;4.91;82.40;103080.91;5077552;28;20466;-65
2022/01/12 04:38:04;;;;;;;59.70;36.80;;;;;;;4.88;82.68;103079.00;5078017;28;20269;-66
2022/01/12 04:40:29;;;;;;;58.33;37.17;;;;;;;5.03;81.54;103067.19;5076768;28;20431;-66
2022/01/12 04:42:55;;;;;;;63.73;37.80;;;;;;;5.16;81.06;103068.91;5079917;28;20411;-66
2022/01/12 04:50:21;;;;;;;61.40;39.30;;;;;;;5.52;80.13;103058.38;5081111;28;20415;-65
2022/01/12 04:52:47;;;;;;;51.93;35.70;;;;;;;5.10;81.70;103057.25;5081327;28;20507;-66
2022/01/12 04:55:12;;;;;;;57.00;34.80;;;;;;;5.03;82.07;103056.84;5080207;28;20463;-66
2022/01/12 04:57:37;;;;;;;52.97;34.83;;;;;;;5.06;81.50;103061.34;5081168;28;20173;-65
2022/01/12 05:00:10;;;;;;;51.97;33.90;;;;;;;5.33;82.84;103064.00;5080682;28;20179;-66
2022/01/12 05:08:19;;;;;;;63.30;37.77;;;;;;;4.99;81.62;103067.75;5080973;28;20417;-64
2022/01/12 05:13:29;;;;;;;66.30;38.50;;;;;;;5.14;81.07;103075.69;5080790;28;20689;-66
2022/01/12 05:15:55;;;;;;;64.23;37.20;;;;;;;5.40;81.11;103072.28;5080894;28;20447;-67
2022/01/12 05:18:20;;;;;;;60.30;35.97;;;;;;;5.09;81.07;103083.88;5082529;28;20180;-67
2022/01/12 05:20:46;;;;;;;59.50;36.90;;;;;;;5.15;81.14;103082.63;5081931;28;20415;-66
2022/01/12 05:23:12;;;;;;;65.93;36.07;;;;;;;5.50;79.89;103088.44;5080828;28;20345;-65
2022/01/12 05:25:38;;;;;;;57.90;37.83;;;;;;;4.84;81.86;103079.59;5080685;28;20497;-66
2022/01/12 05:28:03;;;;;;;53.97;36.27;;;;;;;5.32;81.39;103081.22;5080668;28;20716;-66
2022/01/12 05:30:29;;;;;;;58.07;37.27;;;;;;;5.31;80.56;103089.75;5080882;28;20208;-66
2022/01/12 05:32:54;;;;;;;65.23;38.73;;;;;;;5.34;80.41;103087.38;5080324;28;20197;-67
2022/01/12 05:35:20;;;;;;;58.23;35.50;;;;;;;5.52;80.41;103087.78;5080230;28;20558;-67
2022/01/12 05:37:46;;;;;;;56.63;35.53;;;;;;;5.85;79.19;103095.13;5080657;28;20180;-66
2022/01/12 05:40:13;;;;;;;58.03;37.70;;;;;;;5.34;80.48;103099.44;5080120;28;20415;-66
2022/01/12 05:42:38;;;;;;;54.57;34.97;;;;;;;5.14;81.96;103096.38;5080342;28;20441;-67
2022/01/12 05:45:05;;;;;;;52.73;35.00;;;;;;;5.48;80.97;103106.47;5080515;28;20378;-67
2022/01/12 05:49:34;;;;;;;56.80;34.80;;;;;;;5.59;80.24;103096.84;5080013;28;20583;-66
2022/01/12 05:50:26;;;;;;;55.80;34.77;;;;;;;5.64;79.71;103108.41;5079905;28;20436;-66
2022/01/12 05:52:52;;;;;;;60.30;34.07;;;;;;;5.54;79.76;103105.97;5079236;28;20454;-66
2022/01/12 05:55:17;;;;;;;53.13;33.50;;;;;;;5.29;81.09;103105.97;5079129;28;20482;-66
2022/01/12 05:57:43;;;;;;;48.33;32.23;;;;;;;5.27;81.32;103103.28;5080037;28;20302;-66
2022/01/12 06:00:13;;;;;;;54.07;31.60;;;;;;;5.34;81.85;103105.50;5079678;28;20165;-66
2022/01/12 06:02:39;;;;;;;49.53;30.93;;;;;;;5.41;81.23;103106.81;5079554;28;20188;-65
2022/01/12 06:05:04;;;;;;;51.77;32.77;;;;;;;5.46;81.44;103110.63;5080160;28;20777;-66
2022/01/12 06:07:30;;;;;;;46.83;31.30;;;;;;;5.22;81.77;103102.97;5079561;28;20263;-66
2022/01/12 06:09:55;;;;;;;49.20;33.03;;;;;;;5.26;82.33;103101.47;5079431;28;20417;-67
2022/01/12 06:12:20;;;;;;;49.47;32.83;;;;;;;5.34;81.32;103102.91;5080146;28;20177;-66
2022/01/12 06:14:46;;;;;;;50.87;32.70;;;;;;;5.32;81.92;103111.38;5079426;28;20187;-66
2022/01/12 06:17:11;;;;;;;55.17;34.00;;;;;;;5.33;80.71;103119.25;5079307;28;20578;-65
2022/01/12 06:19:37;;;;;;;48.50;32.00;;;;;;;5.80;79.98;103130.16;5079908;28;20173;-65
2022/01/12 06:22:03;;;;;;;51.37;32.03;;;;;;;5.88;80.44;103147.09;5079201;28;20173;-65
2022/01/12 06:24:28;;;;;;;50.43;31.00;;;;;;;5.23;82.64;103159.06;5079218;28;20181;-66
2022/01/12 06:26:54;;;;;;;48.00;31.20;;;;;;;5.95;79.75;103156.19;5079512;28;20286;-69
2022/01/12 06:31:49;;;;;;;60.30;35.00;;;;;;;5.53;81.64;103148.16;5080732;28;20407;-67
2022/01/12 06:34:15;;;;;;;51.60;31.87;;;;;;;5.67;81.90;103144.84;5081046;28;20544;-65
2022/01/12 06:36:41;;;;;;;48.73;30.80;;;;;;;5.84;80.61;103145.09;5079113;28;20476;-67
2022/01/12 06:39:09;;;;;;;46.80;29.73;;;;;;;5.62;81.49;103153.97;5078883;28;20263;-65
2022/01/12 06:41:35;;;;;;;48.90;28.93;;;;;;;5.25;83.13;103151.44;5079598;28;20165;-66
2022/01/12 06:44:00;;;;;;;54.80;31.33;;;;;;;5.61;81.94;103154.75;5077829;28;20757;-66
2022/01/12 06:46:29;;;;;;;51.20;28.53;;;;;;;5.69;81.66;103145.81;5078832;28;20415;-66
2022/01/12 06:48:54;;;;;;;46.53;27.33;;;;;;;5.79;80.78;103149.97;5078651;28;20478;-65
2022/01/12 06:51:20;;;;;;;52.70;29.77;;;;;;;5.81;80.71;103163.00;5078905;28;20411;-66
2022/01/12 06:53:45;;;;;;;52.90;29.70;;;;;;;5.91;81.07;103168.00;5078326;28;20221;-66
2022/01/12 06:56:15;;;;;;;46.93;28.63;;;;;;;5.35;82.78;103168.47;5078784;28;20257;-65
2022/01/12 06:58:40;;;;;;;47.10;27.60;;;;;;;5.62;81.92;103169.50;5078674;28;20214;-66
2022/01/12 07:01:05;;;;;;;51.03;30.33;;;;;;;5.96;81.01;103171.81;5078411;28;20415;-67
2022/01/12 07:03:31;;;;;;;56.70;29.67;;;;;;;5.71;80.50;103171.81;5078940;28;20417;-66
2022/01/12 07:05:56;;;;;;;54.97;27.83;;;;;;;5.93;81.29;103184.56;5078160;28;20441;-65
2022/01/12 07:08:21;;;;;;;53.53;29.50;;;;;;;6.11;80.62;103181.44;5077601;28;20188;-65
2022/01/12 07:10:47;;;;;;;51.93;28.27;;;;;;;5.99;80.37;103173.75;5078715;28;20173;-66
2022/01/12 07:13:13;;;;;;;48.70;27.97;;;;;;;5.85;81.49;103180.53;5078253;28;20179;-67
2022/01/12 07:15:40;;;;;;;49.50;28.30;;;;;;;5.57;82.42;103186.41;5078255;28;20250;-66
2022/01/12 07:18:05;;;;;;;46.33;26.63;;;;;;;5.50;82.70;103194.53;5078509;28;20434;-66
2022/01/12 07:20:30;;;;;;;46.37;28.00;;;;;;;5.37;83.03;103198.84;5078522;28;20415;-66
2022/01/12 07:22:56;;;;;;;53.57;27.73;;;;;;;5.87;82.01;103199.66;5078158;28;20541;-66
2022/01/12 07:25:21;;;;;;;53.37;26.60;;;;;;;6.06;81.25;103200.16;5078834;28;20165;-66
2022/01/12 07:27:46;;;;;;;57.80;27.00;;;;;;;5.80;81.39;103200.03;5078253;28;20180;-66
2022/01/12 07:30:12;;;;;;;64.77;29.40;;;;;;;5.89;81.53;103201.56;5078165;28;20604;-66
2022/01/12 07:32:37;;;;;;;57.07;29.23;;;;;;;6.14;80.60;103210.13;5078665;28;20184;-66
2022/01/12 07:35:04;;;;;;;60.40;28.97;;;;;;;6.34;79.85;103222.72;5078033;28;20208;-65
2022/01/12 07:37:29;;;;;;;54.40;27.70;;;;;;;6.46;79.48;103220.06;5077535;28;20176;-66
2022/01/12 07:39:55;;;;;;;57.03;29.90;;;;;;;6.20;80.14;103228.69;5078807;28;20457;-65
2022/01/12 07:42:20;;;;;;;53.17;27.43;;;;;;;6.33;79.49;103222.63;5077951;28;20432;-66
2022/01/12 07:44:45;;;;;;;52.77;27.40;;;;;;;5.98;81.31;103221.13;5078157;28;20225;-65
2022/01/12 07:47:11;;;;;;;53.60;27.70;;;;;;;6.08;80.60;103218.41;5078564;28;20165;-67
2022/01/12 07:49:36;;;;;;;49.83;26.87;;;;;;;6.24;80.71;103228.09;5078113;28;20314;-66
2022/01/12 07:52:03;;;;;;;50.67;27.17;;;;;;;6.18;80.40;103225.09;5078053;28;20187;-67
2022/01/12 07:54:29;;;;;;;54.33;27.67;;;;;;;6.14;80.46;103221.38;5077769;28;20232;-67
2022/01/12 07:56:54;;;;;;;50.23;26.67;;;;;;;6.03;81.67;103223.25;5077817;28;20728;-66
2022/01/12 07:59:19;;;;;;;49.17;25.60;;;;;;;5.94;80.60;103225.19;5078268;28;20188;-65
2022/01/12 08:01:45;;;;;;;57.07;26.07;;;;;;;6.26;79.49;103231.69;5077842;28;20176;-65
2022/01/12 08:04:10;;;;;;;51.90;26.23;;;;;;;6.27;80.25;103230.91;5077588;28;20189;-64
2022/01/12 08:06:35;;;;;;;55.10;27.40;;;;;;;6.33;79.69;103231.31;5078431;28;20219;-67
2022/01/12 08:09:01;;;;;;;45.90;25.07;;;;;;;6.35;80.45;103232.31;5077907;28;20400;-72
2022/01/12 08:11:26;;;;;;;53.20;26.47;;;;;;;6.66;78.59;103236.94;5078399;28;20173;-69
2022/01/12 08:13:52;;;;;;;43.47;23.70;;;;;;;6.58;78.47;103238.13;5078280;28;20173;-67
2022/01/12 08:16:18;;;;;;;44.00;23.97;;;;;;;6.51;79.39;103241.13;5077853;28;20216;-68
2022/01/12 08:18:43;;;;;;;42.67;23.33;;;;;;;6.50;78.68;103224.66;5081455;28;20438;-66
2022/01/12 08:21:08;;;;;;;40.67;23.10;;;;;;;6.19;79.86;103229.47;5082135;28;20173;-66
2022/01/12 08:23:34;;;;;;;47.43;23.23;;;;;;;6.17;79.63;103239.75;5081748;28;20173;-66
2022/01/12 08:26:00;;;;;;;40.00;22.40;;;;;;;6.10;79.78;103246.97;5081560;28;20173;-66
2022/01/12 08:28:25;;;;;;;41.50;22.10;;;;;;;6.24;79.37;103251.41;5081818;28;20214;-66
2022/01/12 08:30:51;;;;;;;44.37;24.30;;;;;;;6.36;79.21;103249.66;5081690;28;20535;-66
2022/01/12 08:33:17;;;;;;;46.53;22.70;;;;;;;6.69;77.59;103237.13;5081176;28;20188;-67
2022/01/12 08:35:42;;;;;;;44.10;22.40;;;;;;;6.57;78.57;103247.59;5081750;28;20197;-67
2022/01/12 08:38:07;;;;;;;44.20;21.30;;;;;;;6.57;78.13;103257.06;5081245;28;20188;-66
2022/01/12 08:40:33;;;;;;;21.10;12.23;;;;;;;9.74;72.19;103231.78;5079289;28;20177;-62
2022/01/12 08:42:59;;;;;;;18.70;13.00;;;;;;;11.26;69.73;103242.88;5070990;28;20187;-62
2022/01/12 08:45:24;;;;;;;24.83;15.77;;;;;;;10.73;67.19;103248.19;5073009;28;20207;-62
2022/01/12 08:47:50;;;;;;;23.40;15.53;;;;;;;11.55;61.34;103249.41;5060930;28;20174;-61
2022/01/12 08:50:16;;;;;;;18.97;13.97;;;;;;;12.27;62.57;103250.88;5073287;28;20439;-62
2022/01/12 08:52:44;;;;;;;24.13;16.10;;;;;;;9.16;64.16;103261.63;5080128;28;20216;-69
2022/01/12 08:55:11;;;;;;;21.83;14.87;;;;;;;8.12;69.04;103272.00;5080779;28;20458;-68
2022/01/12 08:57:36;;;;;;;25.43;16.90;;;;;;;7.67;71.74;103272.78;5077504;28;20403;-68
2022/01/12 09:00:04;;;;;;;28.77;17.30;;;;;;;7.10;74.02;103270.88;5080417;28;20406;-70
2022/01/12 09:02:29;;;;;;;32.93;18.33;;;;;;;7.31;73.38;103277.44;5084347;28;20185;-70
2022/01/12 09:04:55;;;;;;;28.40;18.50;;;;;;;7.05;73.51;103281.84;5080772;28;20416;-70
2022/01/12 09:07:20;;;;;;;29.83;17.00;;;;;;;6.98;74.83;103282.25;5080496;28;20195;-70
2022/01/12 09:09:45;;;;;;;28.17;16.77;;;;;;;6.94;74.65;103288.03;5080482;28;20519;-70
2022/01/12 09:12:11;;;;;;;31.23;16.73;;;;;;;7.05;73.99;103284.44;5080761;28;20203;-70
2022/01/12 09:14:36;;;;;;;26.43;17.30;;;;;;;6.86;74.58;103276.22;5079688;28;20175;-71
2022/01/12 09:17:02;;;;;;;26.60;16.57;;;;;;;6.84;75.30;103293.41;5072018;28;20583;-71
2022/01/12 09:19:28;;;;;;;28.87;18.40;;;;;;;6.51;75.54;103300.72;5058591;28;20281;-69
2022/01/12 09:21:56;;;;;;;33.47;19.67;;;;;;;6.83;76.43;103299.38;5058204;28;20497;-70
2022/01/12 09:24:21;;;;;;;29.60;17.50;;;;;;;6.68;76.00;103302.72;5060008;28;20173;-72
2022/01/12 09:26:48;;;;;;;34.87;18.83;;;;;;;6.46;76.16;103307.28;5060322;28;20397;-69
2022/01/12 09:29:13;;;;;;;34.27;19.07;;;;;;;6.44;76.97;103304.59;5060079;28;20256;-69
2022/01/12 09:31:39;;;;;;;32.77;18.70;;;;;;;6.68;76.11;103301.84;5060021;28;20455;-70
2022/01/12 09:34:05;;;;;;;32.83;19.17;;;;;;;6.36;77.90;103303.16;5060043;28;20524;-69
2022/01/12 09:36:31;;;;;;;37.47;19.90;;;;;;;6.66;76.97;103306.94;5060553;28;20205;-68
2022/01/12 09:38:56;;;;;;;37.47;19.03;;;;;;;6.46;76.81;103308.19;5066136;28;20428;-68
2022/01/12 09:41:25;;;;;;;34.17;18.70;;;;;;;6.84;76.65;103315.03;5065820;28;20453;-68
2022/01/12 09:43:51;;;;;;;30.30;17.90;;;;;;;7.06;75.49;103312.19;5066274;28;20173;-68
2022/01/12 09:46:16;;;;;;;33.43;19.27;;;;;;;7.05;75.49;103312.97;5060465;28;20530;-69
2022/01/12 09:48:41;;;;;;;40.37;22.40;;;;;;;7.14;74.93;103307.47;5059991;28;20413;-68
2022/01/12 09:51:07;;;;;;;38.93;19.87;;;;;;;6.94;74.92;103321.75;5059769;28;20184;-68
2022/01/12 09:53:34;;;;;;;36.53;19.37;;;;;;;7.28;73.80;103317.84;5059359;28;20224;-68
2022/01/12 09:56:01;;;;;;;36.47;19.40;;;;;;;6.79;75.05;103320.72;5059692;28;20213;-67
2022/01/12 09:58:35;;;;;;;36.83;20.30;;;;;;;7.07;74.62;103316.53;5058882;28;20435;-68
2022/01/12 10:01:02;;;;;;;36.20;19.03;;;;;;;6.79;76.01;103320.72;5059486;28;20502;-68
2022/01/12 10:03:27;;;;;;;33.60;19.53;;;;;;;6.69;76.89;103329.56;5059385;28;20424;-68
2022/01/12 10:05:53;;;;;;;31.57;18.20;;;;;;;6.82;75.88;103321.81;5059398;28;20430;-68
2022/01/12 10:08:20;;;;;;;31.37;17.87;;;;;;;6.70;76.34;103323.59;5059666;28;20169;-68
2022/01/12 10:11:07;;;;;;;33.67;18.97;;;;;;;6.63;76.38;103335.25;5058674;28;20173;-68
2022/01/12 10:13:33;;;;;;;25.87;16.77;;;;;;;6.61;77.01;103338.53;5058749;28;20512;-66
2022/01/12 10:16:11;;;;;;;31.33;18.37;;;;;;;6.70;76.36;103339.16;5059014;28;20796;-68
2022/01/12 10:18:45;;;;;;;31.27;16.23;;;;;;;6.79;77.14;103347.53;5058472;28;20173;-68
2022/01/12 10:21:11;;;;;;;29.27;18.00;;;;;;;6.70;76.30;103340.03;5059292;28;20447;-67
2022/01/12 10:23:39;;;;;;;30.83;18.13;;;;;;;6.89;76.15;103343.88;5058913;28;20521;-67
2022/01/12 10:26:04;;;;;;;27.73;16.50;;;;;;;6.54;77.31;103351.06;5059411;28;20590;-67
2022/01/12 10:28:29;;;;;;;30.10;16.03;;;;;;;6.69;77.28;103348.59;5058562;28;20492;-69
2022/01/12 10:31:02;;;;;;;28.50;16.27;;;;;;;7.01;76.19;103342.09;5058909;28;20446;-67
2022/01/12 10:33:32;;;;;;;28.60;17.03;;;;;;;7.16;75.59;103338.72;5058895;28;20169;-67
2022/01/12 10:36:00;;;;;;;30.17;16.40;;;;;;;6.64;77.58;103349.09;5058648;28;20463;-68
2022/01/12 10:38:26;;;;;;;27.60;16.43;;;;;;;6.81;76.42;103339.88;5058761;28;20419;-68
2022/01/12 10:41:01;;;;;;;24.30;15.80;;;;;;;7.06;76.44;103351.09;5058393;28;20470;-67
2022/01/12 10:43:40;;;;;;;26.07;16.20;;;;;;;7.29;75.67;103355.97;5058650;28;20515;-68
2022/01/12 10:46:14;;;;;;;29.73;16.40;;;;;;;7.01;76.89;103355.06;5057789;28;20469;-68
2022/01/12 10:48:51;;;;;;;26.30;15.50;;;;;;;6.90;76.71;103354.34;5057907;28;20423;-68
2022/01/12 10:51:20;;;;;;;22.53;15.00;;;;;;;7.12;76.08;103357.44;5059128;28;20430;-68
2022/01/12 10:53:46;;;;;;;32.90;15.90;;;;;;;7.02;75.96;103346.50;5058546;28;20468;-68
2022/01/12 10:56:22;;;;;;;22.77;13.80;;;;;;;7.22;75.61;103359.88;5058730;28;20464;-69
2022/01/12 10:58:49;;;;;;;24.70;13.73;;;;;;;7.01;75.61;103347.28;5058566;28;20222;-70
2022/01/12 11:01:17;;;;;;;25.93;13.97;;;;;;;7.53;73.72;103333.31;5058741;28;20420;-68
2022/01/12 11:03:43;;;;;;;22.00;12.83;;;;;;;7.16;75.28;103334.44;5058877;28;20412;-67
2022/01/12 11:06:09;;;;;;;29.13;12.57;;;;;;;8.03;72.81;103320.00;5061835;28;20403;-69
2022/01/12 11:08:36;;;;;;;19.90;12.07;;;;;;;7.62;73.33;103318.31;5059139;28;20450;-70
2022/01/12 11:11:03;;;;;;;21.80;13.87;;;;;;;8.90;69.49;103318.28;5066846;28;20427;-70
2022/01/12 11:13:29;;;;;;;18.80;12.20;;;;;;;9.60;67.45;103299.63;5077549;28;20389;-71
2022/01/12 11:15:56;;;;;;;22.30;13.17;;;;;;;9.75;66.50;103296.09;5078216;28;20461;-70
2022/01/12 11:18:25;;;;;;;18.30;11.80;;;;;;;9.91;66.57;103303.03;5078276;28;20411;-70
2022/01/12 11:20:52;;;;;;;19.07;13.83;;;;;;;9.85;65.85;103287.97;5078089;28;20413;-72
2022/01/12 11:23:19;;;;;;;26.00;14.40;;;;;;;9.47;66.21;103283.25;5077221;28;20740;-69
2022/01/12 11:25:45;;;;;;;22.07;13.00;;;;;;;8.80;68.31;103291.66;5060743;28;20825;-69
2022/01/12 11:28:15;;;;;;;18.93;12.33;;;;;;;8.36;70.32;103304.69;5078225;28;20390;-69
2022/01/12 11:30:52;;;;;;;25.23;14.30;;;;;;;8.17;71.18;103310.47;5079046;28;20419;-70
2022/01/12 11:33:44;;;;;;;19.27;13.87;;;;;;;8.06;71.63;103304.63;5078645;28;20482;-69
2022/01/12 11:36:25;;;;;;;18.73;12.57;;;;;;;8.86;69.75;103297.19;5075766;28;20442;-69
2022/01/12 11:39:00;;;;;;;26.07;13.40;;;;;;;8.89;68.98;103292.16;5077419;28;20443;-69
2022/01/12 11:41:33;;;;;;;20.07;12.60;;;;;;;8.35;70.94;103282.09;5077956;28;20842;-70
2022/01/12 11:44:01;;;;;;;27.63;14.10;;;;;;;8.52;70.33;103266.63;5077274;28;20713;-69
2022/01/12 11:46:40;;;;;;;22.97;13.77;;;;;;;8.34;70.96;103279.41;5077966;28;20392;-69
2022/01/12 11:49:05;;;;;;;23.63;13.90;;;;;;;9.32;68.83;103270.28;5077826;28;20398;-70
2022/01/12 11:51:40;;;;;;;37.50;21.33;;;;;;;9.73;67.45;103267.34;5078408;28;20424;-70
2022/01/12 11:54:07;;;;;;;23.40;14.63;;;;;;;9.20;68.60;103288.72;5081607;28;20220;-71
2022/01/12 11:56:33;;;;;;;19.60;11.43;;;;;;;8.88;68.67;103274.78;5081939;28;20515;-70
2022/01/12 11:59:06;;;;;;;21.00;12.63;;;;;;;9.13;68.69;103281.38;5082159;28;20419;-70
2022/01/12 12:01:44;;;;;;;24.17;12.10;;;;;;;8.67;69.74;103290.03;5082074;28;20165;-70
2022/01/12 12:04:10;;;;;;;24.43;11.37;;;;;;;8.56;70.09;103287.69;5081539;28;20479;-71
2022/01/12 12:06:36;;;;;;;17.50;9.90;;;;;;;8.47;70.60;103279.38;5082177;28;20407;-69
2022/01/12 12:09:12;;;;;;;20.10;10.10;;;;;;;8.82;69.40;103279.63;5082070;28;20386;-70
2022/01/12 12:11:37;;;;;;;20.60;12.20;;;;;;;9.31;68.18;103273.69;5080793;28;20767;-70
2022/01/12 12:14:07;;;;;;;22.30;11.70;;;;;;;8.62;69.54;103281.97;5081998;28;20385;-69
2022/01/12 12:16:34;;;;;;;22.40;11.73;;;;;;;8.93;69.24;103273.34;5081564;28;20216;-71
2022/01/12 12:19:02;;;;;;;21.10;11.80;;;;;;;8.16;71.34;103287.88;5080873;28;20400;-70
2022/01/12 12:21:28;;;;;;;22.93;11.20;;;;;;;8.31;71.09;103293.13;5081864;28;20410;-71
2022/01/12 12:23:53;;;;;;;23.33;12.00;;;;;;;8.41;71.75;103300.63;5081154;28;20443;-70
2022/01/12 12:26:19;;;;;;;31.83;12.63;;;;;;;8.09;72.83;103304.81;5081070;28;20546;-71
2022/01/12 12:28:55;;;;;;;22.10;10.67;;;;;;;8.52;71.17;103303.03;5081707;28;20164;-70
2022/01/12 12:31:22;;;;;;;21.73;11.97;;;;;;;8.25;72.62;103301.44;5081329;28;20722;-71
2022/01/12 12:33:58;;;;;;;23.67;12.70;;;;;;;8.92;70.78;103297.56;5081052;28;20411;-70